createdAt,value
2022-08-20T00:02:09.547Z,25.77
2022-08-20T00:04:36.564Z,25.78
2022-08-20T00:07:06.468Z,25.71
2022-08-20T00:09:36.918Z,25.71
2022-08-20T00:12:05.703Z,25.74
2022-08-20T00:14:33.956Z,25.75
2022-08-20T00:17:01.377Z,25.76
2022-08-20T00:19:28.173Z,25.73
2022-08-20T00:21:57.978Z,25.71
2022-08-20T00:24:24.969Z,25.71
2022-08-20T00:26:52.557Z,25.69
2022-08-20T00:29:20.236Z,25.67
2022-08-20T00:31:46.875Z,25.67
2022-08-20T00:34:13.388Z,25.66
2022-08-20T00:36:40.000Z,25.63
2022-08-20T00:39:06.563Z,25.58
2022-08-20T00:41:33.096Z,25.60
2022-08-20T00:44:05.630Z,25.56
2022-08-20T00:46:32.272Z,25.50
2022-08-20T00:48:59.875Z,25.47
2022-08-20T00:51:44.185Z,25.46
2022-08-20T00:54:24.912Z,25.46
2022-08-20T00:57:03.519Z,25.51
2022-08-20T00:59:33.256Z,25.57
2022-08-20T01:02:01.302Z,25.56
2022-08-20T01:04:33.797Z,25.46
2022-08-20T01:07:00.928Z,25.39
2022-08-20T01:09:49.469Z,25.49
2022-08-20T01:12:15.607Z,25.56
2022-08-20T01:14:46.234Z,25.65
2022-08-20T01:17:19.771Z,25.61
2022-08-20T01:19:50.249Z,25.36
2022-08-20T01:22:43.935Z,25.52
2022-08-20T01:25:16.871Z,25.67
2022-08-20T01:27:45.085Z,25.76
2022-08-20T01:30:12.766Z,25.79
2022-08-20T01:32:39.399Z,25.83
2022-08-20T01:35:06.916Z,25.81
2022-08-20T01:37:33.420Z,25.77
2022-08-20T01:40:00.624Z,25.77
2022-08-20T01:42:35.963Z,25.77
2022-08-20T01:45:05.709Z,25.74
2022-08-20T01:47:38.427Z,25.74
2022-08-20T01:50:16.798Z,25.62
2022-08-20T01:53:22.253Z,25.45
2022-08-20T01:55:49.057Z,25.30
2022-08-20T01:58:15.647Z,25.14
2022-08-20T02:00:43.677Z,25.15
2022-08-20T02:03:10.211Z,25.12
2022-08-20T02:05:36.748Z,24.97
2022-08-20T02:08:04.517Z,25.06
2022-08-20T02:10:33.829Z,25.05
2022-08-20T02:13:01.028Z,24.73
2022-08-20T02:15:34.464Z,24.72
2022-08-20T02:18:08.273Z,24.82
2022-08-20T02:20:35.979Z,24.72
2022-08-20T02:23:03.706Z,24.77
2022-08-20T02:25:32.800Z,24.89
2022-08-20T02:28:02.414Z,24.41
2022-08-20T02:30:33.381Z,24.30
2022-08-20T02:33:01.814Z,24.52
2022-08-20T02:35:30.676Z,24.54
2022-08-20T02:38:01.283Z,24.62
2022-08-20T02:40:30.996Z,24.80
2022-08-20T02:43:01.917Z,24.92
2022-08-20T02:45:29.899Z,24.75
2022-08-20T02:47:57.631Z,24.63
2022-08-20T02:50:26.140Z,24.80
2022-08-20T02:52:52.710Z,24.88
2022-08-20T02:55:26.985Z,24.75
2022-08-20T02:58:00.078Z,24.62
2022-08-20T03:00:28.341Z,24.50
2022-08-20T03:02:54.861Z,24.55
2022-08-20T03:05:21.402Z,24.50
2022-08-20T03:07:50.562Z,24.72
2022-08-20T03:10:17.564Z,24.88
2022-08-20T03:12:44.113Z,24.58
2022-08-20T03:15:17.514Z,24.42
2022-08-20T03:17:44.775Z,24.49
2022-08-20T03:20:13.167Z,24.25
2022-08-20T03:22:40.167Z,24.21
2022-08-20T03:25:07.686Z,24.36
2022-08-20T03:27:36.489Z,24.41
2022-08-20T03:30:07.118Z,24.75
2022-08-20T03:32:33.676Z,24.60
2022-08-20T03:35:01.788Z,24.43
2022-08-20T03:37:31.375Z,24.43
2022-08-20T03:39:58.791Z,24.44
2022-08-20T03:42:25.822Z,24.45
2022-08-20T03:44:58.579Z,24.48
2022-08-20T03:47:26.306Z,24.44
2022-08-20T03:49:55.944Z,24.68
2022-08-20T03:52:22.398Z,24.48
2022-08-20T03:54:49.412Z,24.50
2022-08-20T03:57:16.499Z,24.31
2022-08-20T03:59:44.517Z,24.25
2022-08-20T04:02:12.240Z,24.22
2022-08-20T04:04:41.004Z,24.10
2022-08-20T04:07:13.185Z,24.12
2022-08-20T04:09:39.975Z,24.00
2022-08-20T04:12:07.474Z,23.84
2022-08-20T04:14:36.283Z,23.69
2022-08-20T04:17:08.579Z,23.62
2022-08-20T04:19:36.602Z,23.51
2022-08-20T04:22:03.203Z,23.39
2022-08-20T04:24:32.449Z,23.18
2022-08-20T04:27:00.126Z,23.01
2022-08-20T04:29:32.689Z,22.84
2022-08-20T04:32:00.633Z,22.74
2022-08-20T04:34:29.923Z,22.65
2022-08-20T04:36:56.809Z,22.58
2022-08-20T04:39:23.728Z,22.63
2022-08-20T04:41:50.295Z,22.79
2022-08-20T04:44:16.767Z,22.94
2022-08-20T04:46:43.668Z,22.84
2022-08-20T04:51:37.127Z,23.24
2022-08-20T04:54:04.529Z,23.41
2022-08-20T04:56:34.816Z,23.53
2022-08-20T04:59:01.730Z,23.52
2022-08-20T05:01:28.399Z,23.48
2022-08-20T05:03:55.782Z,23.49
2022-08-20T05:06:30.946Z,23.37
2022-08-20T05:09:00.785Z,23.45
2022-08-20T05:11:35.966Z,23.39
2022-08-20T05:14:09.469Z,23.14
2022-08-20T05:16:39.291Z,23.56
2022-08-20T05:19:10.480Z,23.57
2022-08-20T05:21:37.509Z,23.70
2022-08-20T05:24:05.092Z,23.60
2022-08-20T05:26:33.237Z,23.70
2022-08-20T05:29:02.217Z,23.67
2022-08-20T05:31:32.603Z,23.81
2022-08-20T05:34:10.793Z,23.88
2022-08-20T05:36:44.173Z,23.93
2022-08-20T05:39:11.630Z,24.00
2022-08-20T05:41:39.823Z,24.06
2022-08-20T05:44:11.379Z,24.05
2022-08-20T05:46:41.258Z,23.94
2022-08-20T05:49:16.362Z,23.67
2022-08-20T05:51:46.856Z,23.44
2022-08-20T05:54:14.078Z,23.31
2022-08-20T05:56:42.528Z,23.35
2022-08-20T05:59:10.545Z,23.24
2022-08-20T06:01:38.767Z,23.23
2022-08-20T06:04:25.817Z,23.20
2022-08-20T06:06:54.931Z,23.09
2022-08-20T06:09:30.921Z,23.17
2022-08-20T06:11:59.966Z,23.19
2022-08-20T06:14:27.527Z,23.22
2022-08-20T06:16:57.766Z,23.46
2022-08-20T06:19:26.535Z,23.63
2022-08-20T06:21:53.954Z,23.67
2022-08-20T06:24:23.312Z,23.58
2022-08-20T06:26:55.968Z,23.50
2022-08-20T06:29:22.472Z,23.51
2022-08-20T06:31:51.285Z,23.63
2022-08-20T06:34:18.846Z,23.75
2022-08-20T06:36:46.818Z,23.86
2022-08-20T06:39:15.267Z,23.86
2022-08-20T06:41:42.306Z,23.89
2022-08-20T06:44:08.949Z,23.74
2022-08-20T06:46:36.197Z,23.94
2022-08-20T06:49:04.569Z,24.04
2022-08-20T06:51:32.609Z,24.16
2022-08-20T06:53:59.187Z,24.09
2022-08-20T06:56:25.756Z,23.99
2022-08-20T06:58:52.314Z,23.88
2022-08-20T07:01:21.015Z,23.84
2022-08-20T07:03:54.780Z,23.93
2022-08-20T07:06:25.531Z,23.84
2022-08-20T07:08:53.311Z,23.89
2022-08-20T07:11:24.961Z,23.93
2022-08-20T07:13:54.245Z,23.85
2022-08-20T07:16:20.748Z,23.67
2022-08-20T07:18:47.230Z,23.69
2022-08-20T07:21:13.829Z,23.73
2022-08-20T07:23:42.163Z,23.65
2022-08-20T07:26:08.717Z,23.62
2022-08-20T07:28:35.336Z,23.67
2022-08-20T07:31:20.998Z,23.57
2022-08-20T07:33:47.712Z,23.50
2022-08-20T07:36:18.242Z,23.46
2022-08-20T07:38:50.943Z,23.45
2022-08-20T07:41:17.612Z,23.48
2022-08-20T07:43:45.961Z,23.71
2022-08-20T07:46:20.812Z,23.64
2022-08-20T07:48:50.107Z,23.70
2022-08-20T07:51:22.474Z,23.74
2022-08-20T07:53:50.631Z,23.79
2022-08-20T07:56:22.521Z,23.88
2022-08-20T07:59:00.033Z,23.82
2022-08-20T08:01:32.734Z,23.93
2022-08-20T08:04:00.103Z,24.20
2022-08-20T08:06:31.895Z,24.55
2022-08-20T08:09:10.272Z,24.60
2022-08-20T08:11:39.441Z,24.54
2022-08-20T08:14:08.366Z,24.28
2022-08-20T08:16:36.242Z,24.50
2022-08-20T08:19:07.008Z,24.54
2022-08-20T08:21:33.584Z,24.59
2022-08-20T08:24:00.549Z,24.49
2022-08-20T08:26:29.189Z,24.37
2022-08-20T08:28:56.708Z,24.54
2022-08-20T08:31:25.215Z,24.57
2022-08-20T08:33:51.779Z,24.60
2022-08-20T08:36:18.359Z,24.65
2022-08-20T08:38:45.852Z,24.45
2022-08-20T08:41:20.924Z,24.48
2022-08-20T08:43:50.605Z,24.47
2022-08-20T08:46:22.646Z,24.41
2022-08-20T08:48:53.418Z,24.41
2022-08-20T08:51:29.271Z,24.46
2022-08-20T08:53:56.851Z,24.43
2022-08-20T08:56:30.678Z,24.56
2022-08-20T08:59:08.638Z,24.69
2022-08-20T09:01:54.752Z,24.80
2022-08-20T09:04:27.169Z,24.81
2022-08-20T09:06:56.515Z,24.88
2022-08-20T09:09:34.111Z,24.84
2022-08-20T09:12:07.862Z,24.76
2022-08-20T09:14:35.021Z,24.84
2022-08-20T09:17:01.648Z,24.88
2022-08-20T09:19:28.495Z,24.74
2022-08-20T09:21:55.118Z,24.87
2022-08-20T09:24:21.604Z,25.02
2022-08-20T09:26:48.078Z,25.16
2022-08-20T09:29:15.051Z,25.18
2022-08-20T09:31:41.767Z,25.29
2022-08-20T09:34:08.572Z,25.35
2022-08-20T09:36:37.485Z,25.30
2022-08-20T09:39:04.256Z,25.48
2022-08-20T09:41:33.822Z,25.53
2022-08-20T09:44:01.430Z,25.54
2022-08-20T09:46:27.925Z,25.25
2022-08-20T09:48:54.990Z,25.21
2022-08-20T09:51:21.876Z,25.24
2022-08-20T09:53:48.983Z,25.41
2022-08-20T09:56:15.640Z,25.24
2022-08-20T09:58:50.726Z,25.26
2022-08-20T10:01:19.854Z,25.34
2022-08-20T10:03:52.101Z,25.44
2022-08-20T10:06:20.937Z,25.63
2022-08-20T10:08:49.858Z,25.68
2022-08-20T10:11:18.020Z,25.92
2022-08-20T10:13:44.620Z,25.92
2022-08-20T10:16:11.138Z,25.74
2022-08-20T10:18:37.692Z,25.87
2022-08-20T10:21:09.586Z,25.79
2022-08-20T10:23:36.060Z,25.79
2022-08-20T10:26:02.560Z,25.85
2022-08-20T10:28:29.077Z,26.10
2022-08-20T10:30:55.545Z,26.48
2022-08-20T10:33:22.221Z,26.70
2022-08-20T10:35:48.688Z,27.05
2022-08-20T10:38:15.754Z,27.15
2022-08-20T10:40:42.602Z,27.43
2022-08-20T10:43:18.768Z,27.58
2022-08-20T10:45:45.283Z,27.93
2022-08-20T10:48:11.750Z,27.82
2022-08-20T10:50:38.235Z,27.69
2022-08-20T10:53:04.781Z,28.07
2022-08-20T10:55:31.246Z,28.09
2022-08-20T10:57:59.322Z,28.50
2022-08-20T11:00:26.349Z,28.72
2022-08-20T11:02:52.821Z,28.60
2022-08-20T11:05:19.818Z,29.27
2022-08-20T11:07:54.711Z,28.58
2022-08-20T11:10:24.191Z,28.63
2022-08-20T11:12:50.857Z,28.69
2022-08-20T11:15:17.367Z,28.67
2022-08-20T11:17:44.263Z,28.67
2022-08-20T11:20:19.079Z,28.57
2022-08-20T11:22:45.896Z,28.28
2022-08-20T11:25:13.675Z,28.37
2022-08-20T11:27:43.189Z,28.72
2022-08-20T11:30:16.224Z,28.76
2022-08-20T11:32:42.751Z,28.85
2022-08-20T11:35:40.450Z,29.19
2022-08-20T11:37:57.266Z,29.03
2022-08-20T11:40:24.918Z,29.06
2022-08-20T11:43:13.766Z,29.38
2022-08-20T11:45:38.565Z,29.39
2022-08-20T11:48:05.482Z,29.19
2022-08-20T11:50:32.155Z,29.15
2022-08-20T11:53:01.547Z,29.13
2022-08-20T11:55:30.476Z,29.12
2022-08-20T11:57:59.795Z,29.19
2022-08-20T12:00:32.039Z,28.96
2022-08-20T12:03:01.318Z,29.24
2022-08-20T12:05:29.830Z,29.52
2022-08-20T12:07:57.447Z,29.10
2022-08-20T12:10:26.350Z,28.74
2022-08-20T12:12:53.013Z,28.71
2022-08-20T12:15:21.042Z,28.88
2022-08-20T12:17:47.622Z,28.86
2022-08-20T12:20:15.910Z,28.65
2022-08-20T12:22:43.811Z,28.58
2022-08-20T12:25:10.546Z,28.24
2022-08-20T12:27:38.210Z,28.00
2022-08-20T12:30:11.635Z,27.58
2022-08-20T12:32:38.558Z,27.35
2022-08-20T12:35:06.963Z,27.35
2022-08-20T12:37:33.557Z,27.31
2022-08-20T12:40:01.355Z,27.14
2022-08-20T12:42:30.329Z,27.01
2022-08-20T12:44:58.002Z,27.04
2022-08-20T12:47:29.839Z,26.98
2022-08-20T12:50:01.080Z,27.04
2022-08-20T12:52:29.695Z,26.97
2022-08-20T12:54:56.820Z,27.01
2022-08-20T12:57:32.616Z,26.88
2022-08-20T13:00:13.533Z,26.98
2022-08-20T13:02:41.344Z,26.84
2022-08-20T13:05:09.392Z,26.70
2022-08-20T13:07:36.372Z,26.32
2022-08-20T13:10:03.979Z,25.79
2022-08-20T13:12:31.072Z,25.72
2022-08-20T13:14:57.616Z,25.44
2022-08-20T13:17:38.140Z,24.70
2022-08-20T13:20:09.605Z,24.56
2022-08-20T13:22:36.498Z,24.44
2022-08-20T13:25:03.974Z,24.24
2022-08-20T13:27:30.551Z,24.31
2022-08-20T13:29:59.047Z,24.00
2022-08-20T13:32:26.067Z,24.15
2022-08-20T13:34:52.682Z,24.16
2022-08-20T13:37:25.098Z,24.34
2022-08-20T13:39:52.678Z,24.56
2022-08-20T13:42:19.822Z,24.48
2022-08-20T13:44:46.418Z,24.47
2022-08-20T13:47:34.655Z,24.38
2022-08-20T13:50:15.940Z,24.47
2022-08-20T13:52:43.348Z,24.44
2022-08-20T13:55:12.614Z,24.23
2022-08-20T13:57:40.165Z,24.41
2022-08-20T14:00:13.251Z,24.38
2022-08-20T14:02:40.697Z,24.18
2022-08-20T14:05:07.924Z,24.27
2022-08-20T14:07:34.562Z,24.26
2022-08-20T14:10:09.599Z,24.09
2022-08-20T14:12:38.368Z,24.18
2022-08-20T14:15:08.757Z,24.50
2022-08-20T14:17:38.646Z,24.51
2022-08-20T14:20:14.167Z,24.53
2022-08-20T14:22:42.363Z,24.38
2022-08-20T14:25:10.514Z,24.54
2022-08-20T14:27:37.437Z,24.50
2022-08-20T14:30:10.829Z,24.57
2022-08-20T14:32:37.400Z,24.76
2022-08-20T14:35:05.376Z,24.68
2022-08-20T14:37:38.125Z,24.86
2022-08-20T14:40:08.046Z,24.78
2022-08-20T14:42:34.920Z,24.85
2022-08-20T14:45:05.039Z,24.95
2022-08-20T14:47:36.834Z,24.91
2022-08-20T14:50:07.667Z,24.94
2022-08-20T14:52:36.607Z,24.74
2022-08-20T14:55:09.742Z,25.01
2022-08-20T14:57:36.690Z,25.02
2022-08-20T15:00:05.448Z,24.88
2022-08-20T15:02:32.460Z,25.08
2022-08-20T15:04:59.085Z,24.96
2022-08-20T15:07:35.531Z,24.78
2022-08-20T15:10:07.849Z,24.91
2022-08-20T15:12:35.309Z,24.92
2022-08-20T15:15:13.424Z,24.93
2022-08-20T15:17:51.776Z,24.79
2022-08-20T15:20:21.129Z,24.96
2022-08-20T15:22:48.463Z,24.87
2022-08-20T15:25:19.636Z,24.88
2022-08-20T15:27:46.881Z,24.75
2022-08-20T15:30:17.382Z,24.79
2022-08-20T15:32:46.141Z,24.75
2022-08-20T15:35:14.495Z,24.55
2022-08-20T15:37:46.511Z,24.63
2022-08-20T15:40:18.228Z,24.73
2022-08-20T15:42:46.801Z,24.64
2022-08-20T15:45:21.516Z,24.56
2022-08-20T15:47:52.528Z,24.74
2022-08-20T15:50:32.777Z,24.82
2022-08-20T15:53:07.090Z,24.89
2022-08-20T15:55:33.687Z,25.01
2022-08-20T15:58:12.713Z,25.08
2022-08-20T16:00:57.255Z,25.05
2022-08-20T16:04:21.519Z,24.57
2022-08-20T16:07:14.789Z,24.72
2022-08-20T16:10:18.398Z,24.71
2022-08-20T16:12:49.267Z,24.75
2022-08-20T16:15:25.501Z,24.50
2022-08-20T16:18:04.377Z,24.29
2022-08-20T16:20:43.057Z,24.37
2022-08-20T16:23:19.440Z,24.67
2022-08-20T16:25:59.381Z,24.73
2022-08-20T16:28:29.082Z,24.61
2022-08-20T16:31:02.970Z,24.57
2022-08-20T16:34:04.228Z,24.68
2022-08-20T16:36:46.422Z,24.35
2022-08-20T16:39:28.629Z,24.44
2022-08-20T16:41:55.830Z,24.51
2022-08-20T16:44:32.171Z,24.62
2022-08-20T16:47:54.353Z,24.34
2022-08-20T16:50:26.902Z,24.55
2022-08-20T16:52:53.715Z,24.53
2022-08-20T16:55:23.429Z,24.52
2022-08-20T16:57:51.613Z,24.21
2022-08-20T17:00:35.747Z,24.20
2022-08-20T17:03:33.490Z,24.16
2022-08-20T17:06:26.926Z,24.15
2022-08-20T17:08:53.419Z,24.22
2022-08-20T17:11:29.287Z,24.30
2022-08-20T17:14:07.917Z,24.20
2022-08-20T17:16:50.595Z,23.98
2022-08-20T17:19:30.379Z,24.11
2022-08-20T17:22:09.205Z,24.29
2022-08-20T17:24:39.760Z,24.22
2022-08-20T17:27:13.372Z,24.21
2022-08-20T17:29:52.172Z,24.26
2022-08-20T17:32:22.853Z,24.21
2022-08-20T17:34:51.684Z,24.26
2022-08-20T17:37:27.053Z,24.12
2022-08-20T17:40:11.633Z,24.02
2022-08-20T17:43:05.196Z,23.85
2022-08-20T17:45:38.862Z,23.87
2022-08-20T17:48:09.103Z,24.13
2022-08-20T17:50:37.933Z,23.76
2022-08-20T17:53:23.705Z,23.62
2022-08-20T17:55:55.279Z,23.53
2022-08-20T17:58:35.538Z,23.36
2022-08-20T18:01:04.613Z,23.23
2022-08-20T18:03:36.648Z,23.28
2022-08-20T18:06:10.696Z,23.32
2022-08-20T18:08:39.219Z,23.42
2022-08-20T18:11:20.975Z,23.34
2022-08-20T18:14:30.601Z,23.24
2022-08-20T18:17:09.027Z,23.41
2022-08-20T18:20:12.199Z,23.21
2022-08-20T18:22:48.983Z,23.26
2022-08-20T18:25:39.562Z,23.19
2022-08-20T18:28:38.775Z,23.31
2022-08-20T18:31:10.479Z,23.26
2022-08-20T18:33:39.813Z,23.35
2022-08-20T18:36:18.226Z,23.25
2022-08-20T18:38:57.858Z,23.22
2022-08-20T18:41:43.860Z,23.15
2022-08-20T18:44:11.812Z,23.25
2022-08-20T18:46:52.203Z,23.25
2022-08-20T18:49:40.715Z,23.23
2022-08-20T18:52:15.909Z,23.10
2022-08-20T18:54:48.935Z,22.98
2022-08-20T18:57:25.886Z,23.06
2022-08-20T19:00:05.493Z,22.94
2022-08-20T19:02:36.534Z,23.16
2022-08-20T19:05:09.649Z,23.07
2022-08-20T19:07:48.113Z,23.01
2022-08-20T19:10:28.515Z,23.12
2022-08-20T19:13:08.366Z,22.94
2022-08-20T19:15:39.631Z,22.54
2022-08-20T19:18:10.521Z,22.40
2022-08-20T19:20:48.854Z,22.55
2022-08-20T19:23:20.442Z,22.54
2022-08-20T19:26:12.583Z,22.37
2022-08-20T19:28:54.424Z,22.48
2022-08-20T19:31:27.606Z,22.41
2022-08-20T19:34:19.516Z,22.37
2022-08-20T19:36:54.305Z,22.23
2022-08-20T19:39:24.794Z,22.33
2022-08-20T19:41:59.280Z,22.27
2022-08-20T19:44:54.918Z,22.31
2022-08-20T19:47:32.836Z,22.08
2022-08-20T19:50:26.499Z,21.94
2022-08-20T19:53:26.435Z,22.00
2022-08-20T19:55:59.208Z,21.82
2022-08-20T19:58:27.588Z,21.89
2022-08-20T20:00:55.557Z,21.89
2022-08-20T20:03:28.070Z,22.00
2022-08-20T20:05:57.415Z,22.18
2022-08-20T20:08:28.822Z,22.30
2022-08-20T20:11:00.532Z,22.48
2022-08-20T20:13:29.665Z,22.25
2022-08-20T20:16:01.847Z,22.05
2022-08-20T20:18:34.419Z,22.29
2022-08-20T20:21:18.208Z,22.28
2022-08-20T20:23:55.190Z,22.23
2022-08-20T20:26:21.996Z,22.26
2022-08-20T20:28:48.524Z,22.13
2022-08-20T20:31:29.955Z,22.19
2022-08-20T20:33:59.257Z,21.97
2022-08-20T20:37:01.143Z,22.18
2022-08-20T20:39:31.328Z,22.11
2022-08-20T20:42:00.130Z,22.07
2022-08-20T20:44:49.058Z,22.02
2022-08-20T20:47:23.473Z,22.05
2022-08-20T20:52:38.158Z,21.92
2022-08-20T20:55:12.907Z,21.87
2022-08-20T20:57:39.903Z,21.86
2022-08-20T21:00:14.717Z,21.89
2022-08-20T21:02:42.090Z,21.86
2022-08-20T21:05:10.491Z,21.75
2022-08-20T21:07:50.356Z,21.72
2022-08-20T21:10:18.585Z,21.85
2022-08-20T21:12:48.064Z,21.85
2022-08-20T21:15:18.718Z,21.92
2022-08-20T21:17:45.344Z,21.87
2022-08-20T21:20:14.384Z,21.74
2022-08-20T21:22:40.951Z,21.81
2022-08-20T21:25:07.912Z,21.81
2022-08-20T21:27:35.089Z,21.72
2022-08-20T21:30:04.351Z,21.83
2022-08-20T21:32:30.839Z,21.68
2022-08-20T21:34:57.348Z,21.74
2022-08-20T21:37:23.923Z,21.78
2022-08-20T21:39:50.464Z,21.93
2022-08-20T21:42:28.338Z,21.88
2022-08-20T21:44:56.640Z,21.84
2022-08-20T21:47:23.144Z,21.77
2022-08-20T21:49:49.625Z,21.68
2022-08-20T21:52:16.181Z,21.65
2022-08-20T21:54:42.646Z,21.69
2022-08-20T21:57:17.719Z,21.61
2022-08-20T21:59:44.279Z,21.70
2022-08-20T22:02:11.218Z,21.70
2022-08-20T22:04:38.137Z,21.79
2022-08-20T22:07:05.401Z,21.69
2022-08-20T22:09:34.120Z,21.58
2022-08-20T22:12:01.816Z,21.53
2022-08-20T22:14:29.227Z,21.56
2022-08-20T22:16:55.722Z,21.64
2022-08-20T22:19:22.314Z,21.60
2022-08-20T22:21:49.534Z,21.66
2022-08-20T22:24:16.029Z,21.63
2022-08-20T22:26:43.379Z,21.67
2022-08-20T22:29:11.216Z,21.67
2022-08-20T22:31:42.840Z,21.75
2022-08-20T22:34:11.961Z,21.87
2022-08-20T22:36:39.057Z,21.76
2022-08-20T22:39:06.943Z,21.67
2022-08-20T22:41:33.585Z,21.62
2022-08-20T22:44:00.539Z,21.56
2022-08-20T22:46:29.089Z,21.68
2022-08-20T22:48:56.233Z,21.64
2022-08-20T22:51:32.277Z,21.64
2022-08-20T22:54:03.844Z,21.57
2022-08-20T22:56:30.641Z,21.47
2022-08-20T22:58:59.105Z,21.36
2022-08-20T23:01:26.445Z,21.28
2022-08-20T23:03:53.196Z,21.19
2022-08-20T23:06:20.052Z,21.21
2022-08-20T23:08:46.917Z,21.36
2022-08-20T23:11:13.447Z,21.44
2022-08-20T23:13:39.934Z,21.44
2022-08-20T23:16:07.208Z,21.40
2022-08-20T23:18:33.954Z,21.42
2022-08-20T23:21:00.790Z,21.45
2022-08-20T23:23:27.606Z,21.43
2022-08-20T23:25:54.674Z,21.37
2022-08-20T23:28:24.772Z,21.33
2022-08-20T23:30:53.927Z,21.16
2022-08-20T23:33:20.436Z,21.05
2022-08-20T23:35:47.136Z,21.05
2022-08-20T23:38:14.373Z,21.25
2022-08-20T23:40:41.537Z,21.24
2022-08-20T23:43:08.662Z,21.20
2022-08-20T23:45:35.326Z,21.20
2022-08-20T23:48:06.479Z,21.12
2022-08-20T23:50:32.978Z,21.36
2022-08-20T23:52:59.661Z,21.17
2022-08-20T23:55:26.520Z,21.20
2022-08-20T23:57:53.033Z,21.27
